M I D A S
Marine Information and Data Acquisition System
Tripno 403 of the Zeeleeuw from 2002-12-03 11:20:06 to 2002-12-03 16:31:27
Back to CruiseResearch ActivitiesStationsMapUnderway DataData graphs

EquipmentUnitsComment
TimeDGPSUTC
LatitudeDGPSDM.mWGS84
LongitudeDGPSDM.mWGS84
HeadingGyrodeg 
SOGDGPSknotsSpeed over ground
COGDGPSdegCourse over ground
DepthEcho soundermeters200 kHz
Missing or incorrect values are displayed as -999
Navigation data collected by the RV Zeeleeuw from 2002-12-03 11:20:06 to 2002-12-03 16:31:27
Time Latitude Longitude Heading SOG COG Depth
2002-12-03 11:21:08 51°13.963 2°55.536 341.5 6 336.5 13.8
2002-12-03 11:22:08 51°14.068 2°55.461 341.8 7.4 335.8 12.4
2002-12-03 11:23:07 51°14.186 2°55.368 334.7 9 329.8 13.2
2002-12-03 11:24:08 51°14.307 2°55.187 313.7 10.1 309.9 13
2002-12-03 11:25:08 51°14.423 2°54.981 323 11 323.4 12.9
2002-12-03 11:26:08 51°14.561 2°54.789 310.8 11 313 -999
2002-12-03 11:27:08 51°14.689 2°54.566 309.7 11.8 311.8 12.3
2002-12-03 11:28:08 51°14.818 2°54.321 306.3 12.1 309.2 12.5
2002-12-03 11:29:07 51°14.934 2°54.066 305 12.2 305.1 11.9
2002-12-03 11:30:08 51°15.045 2°53.781 300.2 12.7 300.2 12.4
2002-12-03 11:31:08 51°15.152 2°53.487 297.7 12.7 298.7 12.7
2002-12-03 11:32:08 51°15.241 2°53.183 291.5 12.5 291.5 12.9
2002-12-03 11:33:08 51°15.307 2°52.874 287 12.3 287.3 13.8
2002-12-03 11:34:08 51°15.369 2°52.563 286.8 12.2 287.3 14.1
2002-12-03 11:35:08 51°15.413 2°52.248 279 12.2 279.5 14.5
2002-12-03 11:36:08 51°15.427 2°51.929 270.5 12 269.9 15
2002-12-03 11:37:08 51°15.421 2°51.609 267.7 12.2 266.7 14.9
2002-12-03 11:38:08 51°15.4 2°51.29 264 12.2 262.2 15.4
2002-12-03 11:39:08 51°15.352 2°50.978 255.2 12.1 253.2 15.6
2002-12-03 11:40:08 51°15.291 2°50.669 256.5 12.2 254.4 15.7
2002-12-03 11:41:08 51°15.238 2°50.359 256.7 12.1 254.3 15.5
2002-12-03 11:42:08 51°15.181 2°50.051 256.5 12.1 254.1 15.7
2002-12-03 11:43:08 51°15.129 2°49.743 257.2 12.2 254.8 15
2002-12-03 11:44:08 51°15.08 2°49.429 257.7 12.2 254.9 15.5
2002-12-03 11:45:08 51°15.032 2°49.113 263.7 12.3 260.7 15.2
2002-12-03 11:46:08 51°15.019 2°48.785 268.2 12.4 266.5 15.4
2002-12-03 11:47:08 51°14.998 2°48.459 262.3 12.3 260.3 15.1
2002-12-03 11:48:08 51°14.966 2°48.139 262.7 12.3 260.6 15.5
2002-12-03 11:49:07 51°14.925 2°47.829 259.3 12.2 257.2 15.4
2002-12-03 11:50:08 51°14.88 2°47.511 259 12.2 256.4 15.4
2002-12-03 11:51:08 51°14.836 2°47.197 259.5 12.2 257.2 15.2
2002-12-03 11:52:08 51°14.792 2°46.881 259.8 12.4 257.3 14
2002-12-03 11:53:08 51°14.747 2°46.556 259.7 12.7 257.1 13.1
2002-12-03 11:54:08 51°14.701 2°46.227 260.2 12.7 257.7 12
2002-12-03 11:55:08 51°14.655 2°45.898 259.7 12.8 257.5 11.2
2002-12-03 11:56:08 51°14.612 2°45.565 261.7 12.9 259.8 11.4
2002-12-03 11:57:08 51°14.576 2°45.228 261.5 12.8 259.8 13.2
2002-12-03 11:58:08 51°14.538 2°44.896 262.3 12.7 260.5 14.2
2002-12-03 11:59:08 51°14.502 2°44.567 261.5 12.6 260.5 15.9
2002-12-03 12:00:08 51°14.465 2°44.239 261.5 12.6 260.1 16.5
2002-12-03 12:01:08 51°14.436 2°43.909 264.3 12.6 263.1 17.8
2002-12-03 12:02:08 51°14.409 2°43.578 263.5 12.6 261.9 18.8
2002-12-03 12:03:08 51°14.387 2°43.245 266 12.6 264.8 18.9
2002-12-03 12:04:08 51°14.369 2°42.912 265.7 12.6 264.7 19.5
2002-12-03 12:05:08 51°14.351 2°42.579 266 12.6 265.4 19.8
2002-12-03 12:06:08 51°14.331 2°42.246 265.8 12.7 264.6 19.8
2002-12-03 12:07:08 51°14.313 2°41.912 266.2 12.7 265.3 19.6
2002-12-03 12:08:08 51°14.292 2°41.579 265.8 12.7 264.4 18
2002-12-03 12:09:08 51°14.272 2°41.243 269.2 12.8 267.1 16.8
2002-12-03 12:10:08 51°14.289 2°40.902 277 12.9 275.1 16.4
2002-12-03 12:11:08 51°14.324 2°40.563 284.8 13 283.3 15.5
2002-12-03 12:12:08 51°14.391 2°40.232 293.3 13.1 291.1 15.1
2002-12-03 12:13:08 51°14.493 2°39.918 300.8 13.3 298.9 15.3
2002-12-03 12:14:08 51°14.621 2°39.623 306.7 13.6 306.5 16.6
2002-12-03 12:15:08 51°14.754 2°39.335 306.8 13.5 307.4 18.7
2002-12-03 12:16:08 51°14.891 2°39.049 307.2 13.6 307.3 19.3
2002-12-03 12:17:08 51°15.033 2°38.767 309 13.7 309.1 19.9
2002-12-03 12:18:08 51°15.18 2°38.491 311.7 13.7 311.5 18.4
2002-12-03 12:19:08 51°15.328 2°38.22 310.8 13.4 310.6 14.2
2002-12-03 12:20:08 51°15.477 2°37.956 312 13.3 312.7 12.9
2002-12-03 12:21:08 51°15.627 2°37.697 311.5 13.4 312.5 12.9
2002-12-03 12:22:08 51°15.78 2°37.436 311 13.7 312.1 11.5
2002-12-03 12:23:08 51°15.934 2°37.171 312.3 13.8 313.5 15
2002-12-03 12:24:08 51°16.094 2°36.912 311.3 13 315.9 24.8
2002-12-03 12:25:08 51°16.202 2°36.76 307 6.6 320.1 29.3
2002-12-03 12:26:08 51°16.253 2°36.681 278.7 2.9 310.7 30.1
2002-12-03 12:27:08 51°16.27 2°36.648 245.5 1 310.7 30.1
2002-12-03 12:28:08 51°16.275 2°36.644 219.3 0.4 42.5 30.3
2002-12-03 12:29:08 51°16.28 2°36.66 199.5 0.9 69.3 30
2002-12-03 12:30:08 51°16.284 2°36.684 195 1 72.3 29.8
2002-12-03 12:31:08 51°16.282 2°36.7 208.2 0.7 166.4 29.7
2002-12-03 12:32:08 51°16.267 2°36.691 222.8 1.1 214.7 29.8
2002-12-03 12:33:08 51°16.256 2°36.66 239.5 1.5 253.9 29.6
2002-12-03 12:34:08 51°16.262 2°36.615 261.3 2 292.4 29.5
2002-12-03 12:35:08 51°16.282 2°36.564 279.3 2.5 312.2 29.4
2002-12-03 12:36:08 51°16.319 2°36.526 296.8 2.7 334.3 29.7
2002-12-03 12:37:08 51°16.361 2°36.504 305.5 2.7 344.9 29.1
2002-12-03 12:38:08 51°16.405 2°36.49 313 2.8 350.9 29.9
2002-12-03 12:39:08 51°16.453 2°36.482 317.5 2.8 354.9 29.2
2002-12-03 12:40:08 51°16.498 2°36.476 320.7 2.8 355.8 28.6
2002-12-03 12:41:08 51°16.547 2°36.476 334.3 3 3.1 28.8
2002-12-03 12:42:06 51°16.597 2°36.488 353.7 3.3 12.6 29.1
2002-12-03 12:43:08 51°16.65 2°36.518 12.8 3.3 22.9 28.3
2002-12-03 12:44:08 51°16.699 2°36.561 30.5 3.4 33.1 27.8
2002-12-03 12:45:08 51°16.743 2°36.612 45.8 3.2 39.2 28.3
2002-12-03 12:46:08 51°16.78 2°36.669 60.3 3 45.3 28.5
2002-12-03 12:47:08 51°16.815 2°36.727 69.5 3 47 28.8
2002-12-03 12:48:08 51°16.845 2°36.787 82.3 2.8 51.6 29.2
2002-12-03 12:49:08 51°16.872 2°36.847 91.8 2.7 56.3 29.5
2002-12-03 12:50:08 51°16.896 2°36.907 95 2.7 56.9 30.4
2002-12-03 12:51:08 51°16.92 2°36.969 100 2.8 58.7 30.1
2002-12-03 12:52:08 51°16.94 2°37.033 110 2.7 65.7 29.9
2002-12-03 12:53:08 51°16.955 2°37.099 120.5 2.6 71.1 30.2
2002-12-03 12:54:08 51°16.967 2°37.163 129.7 2.5 73.9 30.1
2002-12-03 12:55:08 51°16.97 2°37.229 145.3 2.6 95.8 30
2002-12-03 12:56:08 51°16.956 2°37.293 164.3 2.5 121.3 29.7
2002-12-03 12:57:08 51°16.927 2°37.328 194.2 2 163.1 29.5
2002-12-03 12:58:08 51°16.896 2°37.314 219.7 2.1 212.2 29.4
2002-12-03 12:59:08 51°16.881 2°37.275 241.7 1.3 264.6 30.1
2002-12-03 13:00:08 51°16.89 2°37.248 258.3 1.3 313.9 30
2002-12-03 13:01:08 51°16.907 2°37.227 262.3 1.4 326.3 29.6
2002-12-03 13:02:08 51°16.925 2°37.211 259.5 1.3 336.3 29.5
2002-12-03 13:03:08 51°16.942 2°37.2 256.8 1.1 339.8 29.5
2002-12-03 13:04:08 51°16.959 2°37.192 254 1 347.1 29.8
2002-12-03 13:05:08 51°16.972 2°37.163 263.7 2.5 285.1 29.9
2002-12-03 13:06:08 51°17.006 2°37.08 303.5 4 321.2 29.8
2002-12-03 13:07:08 51°17.069 2°37.047 337.8 4.2 352.3 28.3
2002-12-03 13:08:06 51°17.136 2°37.058 9 4.4 15.5 28.6
2002-12-03 13:09:08 51°17.203 2°37.108 34.8 4.2 32.4 28.6
2002-12-03 13:10:08 51°17.252 2°37.174 53.2 3.7 42.7 28.4
2002-12-03 13:11:08 51°17.291 2°37.242 67.5 3.3 51 28.5
2002-12-03 13:12:08 51°17.323 2°37.314 81.2 3.4 57.8 28.5
2002-12-03 13:13:08 51°17.349 2°37.393 93.3 3.3 64.5 28.7
2002-12-03 13:14:08 51°17.37 2°37.468 100.2 3 64.1 28.5
2002-12-03 13:15:08 51°17.386 2°37.543 110.5 3.1 74.1 28.5
2002-12-03 13:16:08 51°17.394 2°37.622 124.8 2.9 86.5 28.1
2002-12-03 13:17:08 51°17.391 2°37.697 138 2.7 94.8 28.2
2002-12-03 13:18:08 51°17.379 2°37.761 156.3 2.5 116 28.5
2002-12-03 13:19:07 51°17.353 2°37.804 179.8 2.1 146.1 28.4
2002-12-03 13:20:08 51°17.329 2°37.823 195 1.5 164.6 28.5
2002-12-03 13:21:08 51°17.309 2°37.823 207 1.4 193.5 28.4
2002-12-03 13:22:08 51°17.281 2°37.797 225.8 2.2 229.2 28.4
2002-12-03 13:23:08 51°17.271 2°37.74 248 2.3 266.4 28.2
2002-12-03 13:24:08 51°17.275 2°37.677 260.7 2.5 281.5 28.2
2002-12-03 13:25:08 51°17.291 2°37.618 271 2.3 303 28.3
2002-12-03 13:26:08 51°17.312 2°37.574 277.2 2.1 311.6 28.2
2002-12-03 13:27:08 51°17.342 2°37.536 290.8 2.4 324.9 28.1
2002-12-03 13:28:08 51°17.38 2°37.507 308 2.7 339.8 28.3
2002-12-03 13:29:08 51°17.422 2°37.49 323.3 2.7 352.3 28.6
2002-12-03 13:30:08 51°17.467 2°37.484 333.7 2.8 357.8 28.4
2002-12-03 13:31:08 51°17.516 2°37.489 348.5 3.1 6.9 28.6
2002-12-03 13:32:08 51°17.567 2°37.507 9.3 3.5 18.5 28.3
2002-12-03 13:33:08 51°17.619 2°37.559 55.7 3.8 42.9 28.7
2002-12-03 13:34:08 51°17.65 2°37.64 96.8 3.4 67.9 28.2
2002-12-03 13:35:08 51°17.656 2°37.719 134.8 2.8 92.9 27.7
2002-12-03 13:36:08 51°17.644 2°37.771 179.2 1.6 128.2 27.9
2002-12-03 13:37:08 51°17.631 2°37.77 232.3 0.9 244.4 28.1
2002-12-03 13:38:07 51°17.641 2°37.732 285.2 2.2 311.5 27.8
2002-12-03 13:39:08 51°17.687 2°37.702 335 3.4 351.2 28.2
2002-12-03 13:40:08 51°17.747 2°37.719 23.5 3.8 21.7 28.4
2002-12-03 13:41:08 51°17.794 2°37.768 49.2 3.1 37.2 27
2002-12-03 13:42:08 51°17.829 2°37.817 63.5 2.6 43.6 28
2002-12-03 13:43:09 51°17.86 2°37.863 73 2.4 42.8 27.8
2002-12-03 13:44:08 51°17.886 2°37.902 82.3 2.1 44.2 27.8
2002-12-03 13:45:08 51°17.909 2°37.94 88.3 1.9 45.5 27.9
2002-12-03 13:46:09 51°17.932 2°37.974 92.5 1.9 40.9 27.5
2002-12-03 13:47:07 51°17.953 2°38.006 94.2 1.8 39.7 27.2
2002-12-03 13:48:08 51°17.976 2°38.036 92.5 1.8 36.2 27.5
2002-12-03 13:49:08 51°17.999 2°38.064 92.2 1.7 36.8 27.7
2002-12-03 13:50:08 51°18.022 2°38.091 91.8 1.7 36.4 27
2002-12-03 13:51:08 51°18.045 2°38.116 93 1.7 34 27.1
2002-12-03 13:52:08 51°18.068 2°38.14 91.5 1.7 32.7 27.6
2002-12-03 13:53:08 51°18.091 2°38.163 89 1.6 32 27.5
2002-12-03 13:54:08 51°18.114 2°38.186 86.8 1.7 33.9 27.1
2002-12-03 13:55:08 51°18.138 2°38.209 85.8 1.6 31.9 27.3
2002-12-03 13:56:08 51°18.161 2°38.232 85.5 1.7 30.8 27.5
2002-12-03 13:57:08 51°18.184 2°38.254 84.2 1.6 32.4 27.1
2002-12-03 13:58:08 51°18.208 2°38.277 82.2 1.6 28.5 27.6
2002-12-03 13:59:08 51°18.231 2°38.297 82 1.6 29.1 27.6
2002-12-03 14:00:08 51°18.254 2°38.316 81.7 1.6 26.7 27.8
2002-12-03 14:01:08 51°18.277 2°38.336 80.2 1.6 27 27.9
2002-12-03 14:02:08 51°18.299 2°38.366 89.8 2.6 57.6 28
2002-12-03 14:03:08 51°18.364 2°38.484 16.7 8.3 16.2 27.5
2002-12-03 14:04:08 51°18.542 2°38.367 335.8 13.9 332.6 27.1
2002-12-03 14:05:08 51°18.756 2°38.194 336.3 14.5 332.9 27.2
2002-12-03 14:06:08 51°18.971 2°38.018 336.5 14.5 332.8 24.1
2002-12-03 14:07:08 51°19.187 2°37.842 336.7 14.5 333.3 22.4
2002-12-03 14:08:08 51°19.401 2°37.668 336.2 14.5 332.7 18.5
2002-12-03 14:09:08 51°19.61 2°37.499 336.5 12.7 333.7 20.3
2002-12-03 14:10:08 51°19.746 2°37.4 336.3 7.2 336.5 22.8
2002-12-03 14:11:08 51°19.834 2°37.352 342.3 4.1 346.6 20.4
2002-12-03 14:12:08 51°19.888 2°37.355 10 3.5 8.9 22.6
2002-12-03 14:13:08 51°19.948 2°37.384 29.7 3.7 23 19.5
2002-12-03 14:14:08 51°19.998 2°37.434 50.2 3.5 36.8 18.9
2002-12-03 14:15:08 51°20.039 2°37.497 67.5 3.4 48.9 18.5
2002-12-03 14:16:08 51°20.069 2°37.566 83.8 3.1 60.2 19.4
2002-12-03 14:17:08 51°20.089 2°37.637 97 2.8 68.6 19.8
2002-12-03 14:18:08 51°20.101 2°37.704 111.3 2.6 79 18.1
2002-12-03 14:19:08 51°20.102 2°37.768 125.3 2.4 92.4 19.3
2002-12-03 14:20:08 51°20.092 2°37.828 141.3 2.4 115.2 17.8
2002-12-03 14:21:08 51°20.062 2°37.874 166.3 2.7 150.7 19.6
2002-12-03 14:22:08 51°20.016 2°37.889 186.3 2.9 179.5 19.5
2002-12-03 14:23:08 51°19.968 2°37.87 203.5 3 202.2 23.3
2002-12-03 14:24:08 51°19.928 2°37.827 218.2 2.9 221.1 23.2
2002-12-03 14:25:08 51°19.897 2°37.767 229.8 3 235.6 23
2002-12-03 14:26:08 51°19.874 2°37.696 239.3 3 247.6 22.6
2002-12-03 14:27:08 51°19.863 2°37.623 249.5 2.9 259.8 23
2002-12-03 14:28:08 51°19.859 2°37.545 257 2.9 269.3 20.5
2002-12-03 14:29:08 51°19.861 2°37.469 260.8 2.8 273.6 22.9
2002-12-03 14:30:08 51°19.868 2°37.395 270.2 2.9 282.9 23.1
2002-12-03 14:31:08 51°19.885 2°37.32 285.8 3.1 297.9 21.8
2002-12-03 14:32:08 51°19.916 2°37.252 301 3.2 313 20.7
2002-12-03 14:33:08 51°19.96 2°37.195 317.7 3.5 326 20
2002-12-03 14:34:08 51°20.014 2°37.155 338.2 3.6 342.5 22.1
2002-12-03 14:35:08 51°20.075 2°37.144 1.8 3.6 359.9 22.4
2002-12-03 14:36:08 51°20.127 2°37.158 23.2 3 16.9 22
2002-12-03 14:37:08 51°20.171 2°37.184 41 2.6 25 22.6
2002-12-03 14:38:08 51°20.207 2°37.216 52.3 2.5 30.4 22.7
2002-12-03 14:39:08 51°20.241 2°37.25 58.3 2.4 33.5 22.5
2002-12-03 14:40:08 51°20.274 2°37.286 65.2 2.3 36 22.4
2002-12-03 14:41:08 51°20.3 2°37.367 100.7 6.3 85.7 23.2
2002-12-03 14:42:08 51°20.187 2°37.473 183.5 10.7 178.6 21.5
2002-12-03 14:43:08 51°19.992 2°37.514 166.5 12.4 162.4 22.6
2002-12-03 14:44:08 51°19.794 2°37.613 167.5 12.6 163.2 22.3
2002-12-03 14:45:08 51°19.594 2°37.713 167.7 12.6 163.1 21.7
2002-12-03 14:46:08 51°19.394 2°37.809 167.5 12.6 162.9 20.7
2002-12-03 14:47:08 51°19.194 2°37.908 166.5 12.6 162.5 19.5
2002-12-03 14:48:08 51°18.994 2°38.007 167.3 12.7 162.2 23.7
2002-12-03 14:49:08 51°18.788 2°38.111 167.5 13.3 162.8 25.8
2002-12-03 14:50:08 51°18.578 2°38.216 167.3 13.2 162.5 26.2
2002-12-03 14:51:08 51°18.368 2°38.323 167.5 13.2 162.1 26.2
2002-12-03 14:52:08 51°18.161 2°38.431 167.3 13.1 161.8 26.6
2002-12-03 14:53:08 51°17.955 2°38.541 167.5 13 161.3 26.9
2002-12-03 14:54:08 51°17.749 2°38.648 167.7 12.9 162.2 26.4
2002-12-03 14:55:08 51°17.543 2°38.754 168.2 13.1 162.9 26.4
2002-12-03 14:56:08 51°17.331 2°38.856 167.8 13.3 163.4 21.6
2002-12-03 14:57:08 51°17.119 2°38.952 167.5 13 164 9.5
2002-12-03 14:58:08 51°16.914 2°39.043 169 13 165.2 9.2
2002-12-03 14:59:08 51°16.704 2°39.139 167 13.1 163.6 11.6
2002-12-03 15:00:08 51°16.492 2°39.237 167.5 13.3 163.9 14
2002-12-03 15:01:08 51°16.28 2°39.333 167.7 13.2 164 17.8
2002-12-03 15:02:08 51°16.068 2°39.432 167.8 13.3 163.7 19.3
2002-12-03 15:03:08 51°15.858 2°39.53 168 13.2 164.2 19.3
2002-12-03 15:04:08 51°15.647 2°39.627 168.3 13.1 164.1 18.5
2002-12-03 15:05:08 51°15.441 2°39.743 159.2 13.2 155.9 17.6
2002-12-03 15:06:08 51°15.249 2°39.915 152 13.2 148.7 15.8
2002-12-03 15:07:08 51°15.068 2°40.114 145.3 13.2 141.6 13.1
2002-12-03 15:08:08 51°14.908 2°40.353 139.5 13.2 134.7 12.5
2002-12-03 15:09:08 51°14.762 2°40.61 135.7 13.2 131.3 12
2002-12-03 15:10:08 51°14.615 2°40.87 136.5 13.3 132.7 12.9
2002-12-03 15:11:08 51°14.467 2°41.127 136.5 13.2 132.7 13.5
2002-12-03 15:12:08 51°14.317 2°41.383 136.7 13.2 133 13.9
2002-12-03 15:13:08 51°14.186 2°41.601 144.3 8.3 139.8 16.5
2002-12-03 15:14:08 51°14.103 2°41.653 174.5 4.2 172.7 16.9
2002-12-03 15:15:08 51°14.05 2°41.646 178.8 2.9 185.8 16.9
2002-12-03 15:16:08 51°14.012 2°41.614 224.2 2.6 232.1 17
2002-12-03 15:17:08 51°14.004 2°41.544 275.8 2.9 277 17
2002-12-03 15:18:08 51°14.028 2°41.478 323.8 2.9 315.5 17
2002-12-03 15:19:08 51°14.071 2°41.452 11.5 2.7 356.2 16.4
2002-12-03 15:20:08 51°14.107 2°41.473 60.5 2.1 37.1 16.5
2002-12-03 15:21:08 51°14.124 2°41.518 92.8 2.2 73.7 16.3
2002-12-03 15:22:08 51°14.125 2°41.589 109 2.9 96.6 16.4
2002-12-03 15:23:08 51°14.113 2°41.661 118.8 2.8 109.3 16.8
2002-12-03 15:24:08 51°14.095 2°41.725 125.7 2.7 118.2 16.7
2002-12-03 15:25:08 51°14.071 2°41.785 132 2.6 126.2 16.7
2002-12-03 15:26:08 51°14.043 2°41.839 133.2 2.6 127.6 16.8
2002-12-03 15:27:08 51°14.017 2°41.895 131.7 2.6 124.1 16.6
2002-12-03 15:28:08 51°13.991 2°41.953 132.3 2.7 127 16.5
2002-12-03 15:29:08 51°13.963 2°42.009 133 2.7 128.8 16.2
2002-12-03 15:30:09 51°13.934 2°42.065 134.3 2.7 131.3 15.8
2002-12-03 15:31:08 51°13.904 2°42.116 135.5 2.7 133.4 15.4
2002-12-03 15:32:08 51°13.871 2°42.167 137.5 2.8 135.6 15.2
2002-12-03 15:33:09 51°13.836 2°42.215 145.5 2.8 144.8 14.9
2002-12-03 15:34:08 51°13.793 2°42.243 161.5 2.9 165.9 14.5
2002-12-03 15:35:08 51°13.744 2°42.244 180.8 3.1 188 14.1
2002-12-03 15:36:08 51°13.695 2°42.211 203.2 3.2 212.9 14.2
2002-12-03 15:37:07 51°13.658 2°42.151 221.5 3.2 233.8 14
2002-12-03 15:38:07 51°13.634 2°42.076 241.7 3.3 249.9 14
2002-12-03 15:39:07 51°13.626 2°41.999 259.7 2.7 267.7 14.1
2002-12-03 15:40:07 51°13.628 2°41.93 268.7 2.6 275.9 13.9
2002-12-03 15:41:07 51°13.632 2°41.861 269.7 2.6 276.9 14.1
2002-12-03 15:42:08 51°13.637 2°41.79 269.5 2.7 276.4 14.5
2002-12-03 15:43:07 51°13.644 2°41.721 281.5 2.7 282.9 14.2
2002-12-03 15:44:08 51°13.66 2°41.652 299.5 2.9 295 14.5
2002-12-03 15:45:08 51°13.758 2°41.55 358.8 10 348.7 15.4
2002-12-03 15:46:08 51°13.902 2°41.727 70.8 12.6 64.9 16
2002-12-03 15:47:08 51°13.986 2°42.048 74.8 13.3 68.8 15.3
2002-12-03 15:48:08 51°14.069 2°42.374 75.7 13.3 70.4 15
2002-12-03 15:49:08 51°14.157 2°42.693 66 13.2 59.3 15.4
2002-12-03 15:50:09 51°14.229 2°43.028 78 13.1 71.6 15.3
2002-12-03 15:51:09 51°14.292 2°43.361 72.7 13.2 66.5 15.2
2002-12-03 15:52:08 51°14.376 2°43.678 80.8 13.1 73.8 14.7
2002-12-03 15:53:08 51°14.452 2°44.003 73 13 66.2 14.1
2002-12-03 15:54:08 51°14.509 2°44.337 85.2 13.1 79.2 13
2002-12-03 15:55:08 51°14.546 2°44.675 96.5 12.7 90.3 12.2
2002-12-03 15:56:08 51°14.556 2°45.011 84.2 12.9 78.1 10.4
2002-12-03 15:57:08 51°14.576 2°45.349 89.7 12.9 83.2 8.5
2002-12-03 15:58:08 51°14.574 2°45.675 100.5 12.1 95 7.3
2002-12-03 15:59:06 51°14.563 2°45.991 103.3 12.9 98.6 8.6
2002-12-03 16:00:08 51°14.556 2°46.35 93.7 13.1 89.2 11.4
2002-12-03 16:01:09 51°14.58 2°46.699 90.8 12.8 85.3 11.9
2002-12-03 16:02:07 51°14.596 2°47.027 88.2 13 82.2 11.6
2002-12-03 16:03:07 51°14.603 2°47.365 92.3 12.9 86.8 10.3
2002-12-03 16:04:08 51°14.607 2°47.711 96.8 12.8 91.9 9.7
2002-12-03 16:05:09 51°14.667 2°48.04 75 12.8 67.1 10.1
2002-12-03 16:06:07 51°14.714 2°48.366 89 13 82.4 11
2002-12-03 16:07:09 51°14.771 2°48.707 77.2 13 70.5 11.3
2002-12-03 16:08:07 51°14.841 2°49.018 77.7 12.8 70.2 11.5
2002-12-03 16:09:08 51°14.915 2°49.347 77.2 12.9 70 11.2
2002-12-03 16:10:07 51°15.021 2°49.638 63 13.1 55 11.7
2002-12-03 16:11:08 51°15.145 2°49.929 64.2 13 55.7 11.8
2002-12-03 16:12:07 51°15.264 2°50.212 64.8 13 56.6 11.8
2002-12-03 16:13:06 51°15.367 2°50.505 78.8 12.8 71.3 11.9
2002-12-03 16:14:07 51°15.413 2°50.831 91.8 10.9 85.6 11.9
2002-12-03 16:15:07 51°15.415 2°51.087 97.2 9.4 91.8 11.3
2002-12-03 16:16:07 51°15.412 2°51.358 96 10.5 91 11.6
2002-12-03 16:17:07 51°15.406 2°51.638 99.7 10.6 95.1 11.3
2002-12-03 16:18:09 51°15.384 2°51.926 102.8 10.7 98.5 11.1
2002-12-03 16:19:07 51°15.304 2°52.179 123.3 11.3 121.4 10.7
2002-12-03 16:20:07 51°15.208 2°52.45 121 12.1 118.6 9.9
2002-12-03 16:21:07 51°15.114 2°52.737 121.2 12.2 117.5 9.3
2002-12-03 16:22:07 51°15.021 2°53.024 120.2 12.2 116.8 9
2002-12-03 16:23:07 51°14.93 2°53.315 120.7 12.3 117.3 8.8
2002-12-03 16:24:07 51°14.849 2°53.613 114.7 12.2 110.9 8
2002-12-03 16:25:07 51°14.775 2°53.917 114.7 12.3 111.7 8.4
2002-12-03 16:26:07 51°14.705 2°54.194 114.5 10.9 112.4 8.8
2002-12-03 16:27:07 51°14.624 2°54.448 122.8 10.7 121.3 13.8
2002-12-03 16:28:07 51°14.527 2°54.684 124.2 10.7 122.5 8.9
2002-12-03 16:29:08 51°14.429 2°54.925 126.7 10.6 123.8 9.5
2002-12-03 16:30:05 51°14.339 2°55.137 131 10 125.9 8.6
2002-12-03 16:31:08 51°14.239 2°55.296 144.8 6.8 139.8 8.9